Time;durP1;ratioP1;P1;durP2;ratioP2;P2;SDS_P1;SDS_P2;PMS_P1;PMS_P2;Temp;Humidity;BMP_temperature;BMP_pressure;BME280_temperature;BME280_humidity;BME280_pressure;Samples;Min_cycle;Max_cycle;Signal;HPM_P1;HPM_P2
2021/11/18 00:02:21;;;;;;;3.40;2.45;;;;;;;;;;5073469;28;20192;-88
2021/11/18 00:04:54;;;;;;;4.60;3.15;;;;;;;;;;5073999;28;20671;-89
2021/11/18 00:07:22;;;;;;;4.30;2.92;;;;;;;;;;5073554;28;20220;-89
2021/11/18 00:10:09;;;;;;;7.10;3.72;;;;;;;;;;5073577;28;20268;-89
2021/11/18 00:12:47;;;;;;;2.80;2.58;;;;;;;;;;5073173;28;20209;-89
2021/11/18 00:15:26;;;;;;;6.03;2.75;;;;;;;;;;5072709;28;20657;-89
2021/11/18 00:17:59;;;;;;;1.95;1.80;;;;;;;;;;5073395;28;20224;-89
2021/11/18 00:20:37;;;;;;;6.18;2.83;;;;;;;;;;5073529;28;20221;-88
2021/11/18 00:23:14;;;;;;;2.65;2.40;;;;;;;;;;5073269;28;20207;-90
2021/11/18 00:26:11;;;;;;;2.20;1.98;;;;;;;;;;5073577;28;20181;-88
2021/11/18 00:28:45;;;;;;;3.88;2.58;;;;;;;;;;5073548;28;20185;-88
2021/11/18 00:31:21;;;;;;;6.60;3.22;;;;;;;;;;5073612;28;20215;-89
2021/11/18 00:33:51;;;;;;;3.45;2.35;;;;;;;;;;5073221;28;20189;-89
2021/11/18 00:36:28;;;;;;;4.65;3.22;;;;;;;;;;5074003;28;20217;-89
2021/11/18 00:39:06;;;;;;;2.85;2.53;;;;;;;;;;5073485;28;20201;-89
2021/11/18 00:41:55;;;;;;;5.97;3.08;;;;;;;;;;5073240;28;20181;-89
2021/11/18 00:44:30;;;;;;;3.08;2.63;;;;;;;;;;5073374;28;20185;-89
2021/11/18 00:47:13;;;;;;;3.10;2.10;;;;;;;;;;5073060;28;20250;-89
2021/11/18 00:49:41;;;;;;;3.55;2.80;;;;;;;;;;5072739;28;20193;-89
2021/11/18 00:52:38;;;;;;;4.60;2.50;;;;;;;;;;5072965;28;20670;-89
2021/11/18 00:55:07;;;;;;;3.15;2.40;;;;;;;;;;5073383;28;20644;-89
2021/11/18 00:57:42;;;;;;;5.38;3.17;;;;;;;;;;5072501;28;20235;-89
2021/11/18 01:00:34;;;;;;;2.25;2.10;;;;;;;;;;5072331;28;20187;-89
2021/11/18 01:03:10;;;;;;;3.85;2.83;;;;;;;;;;5072340;28;20286;-89
2021/11/18 01:05:49;;;;;;;5.18;2.67;;;;;;;;;;5072346;28;20181;-89
2021/11/18 01:08:29;;;;;;;3.20;2.72;;;;;;;;;;5072174;28;20662;-89
2021/11/18 01:11:21;;;;;;;4.35;2.40;;;;;;;;;;5072523;28;20181;-89
2021/11/18 01:14:13;;;;;;;2.55;2.35;;;;;;;;;;5072419;28;20272;-89
2021/11/18 01:16:45;;;;;;;2.45;1.75;;;;;;;;;;5071904;28;20220;-89
2021/11/18 01:19:21;;;;;;;2.83;2.22;;;;;;;;;;5072266;28;20186;-89
2021/11/18 01:22:23;;;;;;;1.77;1.60;;;;;;;;;;5072070;28;20698;-89
2021/11/18 01:25:07;;;;;;;5.50;2.85;;;;;;;;;;5072230;28;20181;-88
2021/11/18 01:28:35;;;;;;;3.25;2.63;;;;;;;;;;5074739;28;20308;-89
2021/11/18 01:31:06;;;;;;;11.35;4.32;;;;;;;;;;5075925;28;20192;-89
2021/11/18 01:33:36;;;;;;;4.78;3.13;;;;;;;;;;5075453;28;20284;-88
2021/11/18 01:36:06;;;;;;;4.60;2.83;;;;;;;;;;5075412;28;20241;-88
2021/11/18 01:38:35;;;;;;;2.72;1.98;;;;;;;;;;5075449;28;20177;-89
2021/11/18 01:41:23;;;;;;;2.83;2.05;;;;;;;;;;5074739;28;20204;-89
2021/11/18 01:44:30;;;;;;;2.40;2.20;;;;;;;;;;5075776;28;20185;-89
2021/11/18 01:47:41;;;;;;;3.08;2.45;;;;;;;;;;5075469;28;20280;-89
2021/11/18 01:51:01;;;;;;;4.10;3.13;;;;;;;;;;5075226;28;20224;-89
2021/11/18 01:53:38;;;;;;;2.25;2.05;;;;;;;;;;5075470;28;20205;-88
2021/11/18 01:56:08;;;;;;;4.20;2.78;;;;;;;;;;5072143;28;20220;-89
2021/11/18 01:59:30;;;;;;;4.38;2.30;;;;;;;;;;5075534;28;20243;-88
2021/11/18 02:02:11;;;;;;;2.53;2.00;;;;;;;;;;5075082;28;20197;-88
2021/11/18 02:04:55;;;;;;;4.20;2.80;;;;;;;;;;5075307;28;20189;-88
2021/11/18 02:07:51;;;;;;;2.95;2.70;;;;;;;;;;5075264;28;20216;-88
2021/11/18 02:10:43;;;;;;;4.50;2.42;;;;;;;;;;5075519;28;20195;-88
2021/11/18 02:13:13;;;;;;;3.30;2.10;;;;;;;;;;5075084;28;20308;-88
2021/11/18 02:15:44;;;;;;;2.35;1.67;;;;;;;;;;5074959;28;20177;-88
2021/11/18 02:18:20;;;;;;;2.92;2.33;;;;;;;;;;5075028;28;20278;-88
2021/11/18 02:20:53;;;;;;;2.42;1.80;;;;;;;;;;5074844;28;20674;-88
2021/11/18 02:24:05;;;;;;;1.70;1.60;;;;;;;;;;5074970;28;20200;-88
2021/11/18 02:26:48;;;;;;;2.65;1.88;;;;;;;;;;5074865;28;20221;-87
2021/11/18 02:29:18;;;;;;;5.13;3.08;;;;;;;;;;5074858;28;20197;-88
2021/11/18 02:31:56;;;;;;;3.67;2.10;;;;;;;;;;5074559;28;20193;-88
2021/11/18 02:34:47;;;;;;;6.88;2.88;;;;;;;;;;5074674;28;20181;-88
2021/11/18 02:37:33;;;;;;;4.65;2.92;;;;;;;;;;5074144;28;20648;-88
2021/11/18 02:40:02;;;;;;;2.40;1.80;;;;;;;;;;5074503;28;20651;-88
2021/11/18 02:42:40;;;;;;;4.22;2.10;;;;;;;;;;5074413;28;20662;-89
2021/11/18 02:45:13;;;;;;;2.53;1.95;;;;;;;;;;5074762;28;20185;-88
2021/11/18 02:48:09;;;;;;;3.08;2.28;;;;;;;;;;5074810;28;20242;-88
2021/11/18 02:51:33;;;;;;;5.32;2.97;;;;;;;;;;5074584;28;20181;-88
2021/11/18 02:54:08;;;;;;;3.33;2.40;;;;;;;;;;5074381;28;20209;-88
2021/11/18 02:57:25;;;;;;;2.22;1.67;;;;;;;;;;5069539;28;20243;-88
2021/11/18 02:59:59;;;;;;;1.98;1.60;;;;;;;;;;5074364;28;20197;-88
2021/11/18 03:02:42;;;;;;;2.92;2.17;;;;;;;;;;5074441;28;20579;-88
2021/11/18 03:05:22;;;;;;;2.08;1.50;;;;;;;;;;5074387;28;20562;-88
2021/11/18 03:07:52;;;;;;;5.63;2.65;;;;;;;;;;5074692;28;20638;-88
2021/11/18 03:10:34;;;;;;;2.70;2.45;;;;;;;;;;5074655;28;20588;-88
2021/11/18 03:13:14;;;;;;;2.53;1.73;;;;;;;;;;5073907;28;20247;-88
2021/11/18 03:15:52;;;;;;;3.55;2.20;;;;;;;;;;5073931;28;20272;-88
2021/11/18 03:18:32;;;;;;;2.20;1.67;;;;;;;;;;5074298;28;20250;-89
2021/11/18 03:21:02;;;;;;;2.20;1.48;;;;;;;;;;5075671;28;20193;-88
2021/11/18 03:23:39;;;;;;;2.30;2.10;;;;;;;;;;5075643;28;20194;-88
2021/11/18 03:26:10;;;;;;;3.30;2.20;;;;;;;;;;5075417;28;20212;-88
2021/11/18 03:28:51;;;;;;;2.15;1.50;;;;;;;;;;5073771;28;20557;-88
2021/11/18 03:31:26;;;;;;;1.45;1.25;;;;;;;;;;5073535;28;20189;-88
2021/11/18 03:34:19;;;;;;;3.10;2.28;;;;;;;;;;5073245;28;20208;-88
2021/11/18 03:36:51;;;;;;;2.33;1.63;;;;;;;;;;5073432;28;20309;-88
2021/11/18 03:39:55;;;;;;;2.90;2.40;;;;;;;;;;5073645;28;20667;-88
2021/11/18 03:42:58;;;;;;;4.10;3.13;;;;;;;;;;5073107;28;20228;-88
2021/11/18 03:45:32;;;;;;;2.17;1.90;;;;;;;;;;5073549;28;20563;-88
2021/11/18 03:48:32;;;;;;;3.35;2.30;;;;;;;;;;5073287;28;20228;-88
2021/11/18 03:51:19;;;;;;;4.35;2.65;;;;;;;;;;5072996;28;20283;-89
2021/11/18 03:54:00;;;;;;;3.88;2.38;;;;;;;;;;5073356;28;20295;-88
2021/11/18 03:56:39;;;;;;;4.05;2.65;;;;;;;;;;5073041;28;20228;-89
2021/11/18 03:59:28;;;;;;;6.97;2.95;;;;;;;;;;5072110;28;20585;-88
2021/11/18 04:02:13;;;;;;;2.80;2.40;;;;;;;;;;5072111;28;20283;-88
2021/11/18 04:04:53;;;;;;;2.60;2.40;;;;;;;;;;5072662;28;20574;-88
2021/11/18 04:07:37;;;;;;;3.33;1.98;;;;;;;;;;5073042;28;20278;-88
2021/11/18 04:10:17;;;;;;;4.47;2.78;;;;;;;;;;5073207;28;20277;-89
2021/11/18 04:13:40;;;;;;;3.70;2.72;;;;;;;;;;5072691;28;20234;-88
2021/11/18 04:19:50;;;;;;;3.50;2.00;;;;;;;;;;5072798;28;20553;-88
2021/11/18 04:22:48;;;;;;;2.63;1.90;;;;;;;;;;5072692;28;20203;-88
2021/11/18 04:26:04;;;;;;;2.20;1.92;;;;;;;;;;5052954;28;20186;-88
2021/11/18 04:28:33;;;;;;;3.58;2.88;;;;;;;;;;5052987;28;20214;-88
2021/11/18 04:31:30;;;;;;;5.18;2.97;;;;;;;;;;5052757;28;20699;-89
2021/11/18 04:34:53;;;;;;;4.03;2.90;;;;;;;;;;5052423;28;20218;-89
2021/11/18 04:37:25;;;;;;;4.95;2.90;;;;;;;;;;5052426;28;20226;-89
2021/11/18 04:40:03;;;;;;;2.90;2.60;;;;;;;;;;5052524;28;20712;-89
2021/11/18 04:42:57;;;;;;;3.50;1.98;;;;;;;;;;5052541;28;20177;-88
2021/11/18 04:45:24;;;;;;;3.05;2.13;;;;;;;;;;5052828;28;20192;-89
2021/11/18 04:47:53;;;;;;;4.07;1.80;;;;;;;;;;5052177;28;20225;-88
2021/11/18 04:51:04;;;;;;;3.97;3.05;;;;;;;;;;5052391;28;20189;-88
2021/11/18 04:53:37;;;;;;;5.45;4.70;;;;;;;;;;5057763;28;20221;-88
2021/11/18 04:56:21;;;;;;;10.70;5.80;;;;;;;;;;5072167;28;20628;-88
2021/11/18 04:59:06;;;;;;;8.10;4.55;;;;;;;;;;5072425;28;20229;-88
2021/11/18 05:01:40;;;;;;;8.38;5.15;;;;;;;;;;5075012;28;20196;-88
2021/11/18 05:04:18;;;;;;;5.07;2.97;;;;;;;;;;5056653;28;20189;-88
2021/11/18 05:06:46;;;;;;;3.63;3.08;;;;;;;;;;5056263;28;20672;-88
2021/11/18 05:09:22;;;;;;;5.90;3.22;;;;;;;;;;5056507;28;20208;-88
2021/11/18 05:11:50;;;;;;;3.58;3.03;;;;;;;;;;5056150;28;20333;-88
2021/11/18 05:14:19;;;;;;;4.80;3.35;;;;;;;;;;5056034;28;20212;-88
2021/11/18 05:16:54;;;;;;;4.47;4.07;;;;;;;;;;5056153;28;20231;-88
2021/11/18 05:19:25;;;;;;;5.40;4.10;;;;;;;;;;5055973;28;20741;-88
2021/11/18 05:21:59;;;;;;;7.75;5.10;;;;;;;;;;5056051;28;20208;-88
2021/11/18 05:25:10;;;;;;;7.88;4.63;;;;;;;;;;5056256;28;20205;-88
2021/11/18 05:27:38;;;;;;;7.00;3.85;;;;;;;;;;5056029;28;20225;-88
2021/11/18 05:31:12;;;;;;;5.25;4.40;;;;;;;;;;5055773;28;20189;-89
2021/11/18 05:33:43;;;;;;;9.18;4.15;;;;;;;;;;5055363;28;20594;-87
2021/11/18 05:36:12;;;;;;;7.05;4.03;;;;;;;;;;5055653;28;20300;-89
2021/11/18 05:38:46;;;;;;;6.47;3.30;;;;;;;;;;5055877;28;20189;-88
2021/11/18 05:41:24;;;;;;;5.25;3.90;;;;;;;;;;5055891;28;20174;-88
2021/11/18 05:44:02;;;;;;;3.90;3.53;;;;;;;;;;5055630;28;20198;-88
2021/11/18 05:46:43;;;;;;;5.10;3.92;;;;;;;;;;5055384;28;20256;-88
2021/11/18 05:49:52;;;;;;;3.75;3.30;;;;;;;;;;5055717;28;20204;-87
2021/11/18 05:52:43;;;;;;;4.60;4.13;;;;;;;;;;5055922;28;20210;-87
2021/11/18 05:55:25;;;;;;;7.05;4.55;;;;;;;;;;5055450;28;20667;-87
2021/11/18 05:57:59;;;;;;;4.75;3.53;;;;;;;;;;5051407;28;20230;-87
2021/11/18 06:00:31;;;;;;;6.15;3.70;;;;;;;;;;5059415;28;20191;-87
2021/11/18 06:03:00;;;;;;;4.93;3.63;;;;;;;;;;5075450;28;20200;-87
2021/11/18 06:05:30;;;;;;;4.03;3.13;;;;;;;;;;5075391;28;20264;-85
2021/11/18 06:08:17;;;;;;;4.90;2.78;;;;;;;;;;5075317;28;20223;-85
2021/11/18 06:10:46;;;;;;;4.82;3.47;;;;;;;;;;5075194;28;20553;-88
2021/11/18 06:13:32;;;;;;;4.40;2.95;;;;;;;;;;5074298;28;20631;-87
2021/11/18 06:16:35;;;;;;;4.05;3.35;;;;;;;;;;5074322;28;20204;-87
2021/11/18 06:19:16;;;;;;;2.95;2.50;;;;;;;;;;5075329;28;20192;-87
2021/11/18 06:21:49;;;;;;;2.78;2.22;;;;;;;;;;5076381;28;20193;-86
2021/11/18 06:24:19;;;;;;;2.78;2.47;;;;;;;;;;5075448;28;20181;-87
2021/11/18 06:27:00;;;;;;;4.07;3.33;;;;;;;;;;5075468;28;20600;-87
2021/11/18 06:29:37;;;;;;;3.88;2.88;;;;;;;;;;5075368;28;20566;-87
2021/11/18 06:32:06;;;;;;;4.43;3.17;;;;;;;;;;5075306;28;20185;-87
2021/11/18 06:34:46;;;;;;;4.88;2.88;;;;;;;;;;5075613;28;20596;-87
2021/11/18 06:37:14;;;;;;;2.95;2.25;;;;;;;;;;5076934;28;20224;-87
2021/11/18 06:39:43;;;;;;;2.38;2.17;;;;;;;;;;5075845;28;20263;-86
2021/11/18 06:42:34;;;;;;;5.35;3.22;;;;;;;;;;5074635;28;20630;-87
2021/11/18 06:45:23;;;;;;;3.25;2.03;;;;;;;;;;5091196;28;20188;-87
2021/11/18 06:47:52;;;;;;;2.78;2.47;;;;;;;;;;5095113;28;20361;-87
2021/11/18 06:50:38;;;;;;;4.25;3.25;;;;;;;;;;5095455;28;20234;-88
2021/11/18 06:53:31;;;;;;;3.42;2.92;;;;;;;;;;5095563;28;20208;-87
2021/11/18 06:56:11;;;;;;;3.30;2.70;;;;;;;;;;5095015;28;20246;-87
2021/11/18 06:58:39;;;;;;;4.35;2.30;;;;;;;;;;5094371;28;20220;-87
2021/11/18 07:01:15;;;;;;;4.57;3.00;;;;;;;;;;5095084;28;20783;-87
2021/11/18 07:03:46;;;;;;;3.88;3.10;;;;;;;;;;5094796;28;20230;-87
2021/11/18 07:07:16;;;;;;;4.35;3.05;;;;;;;;;;5094606;28;20299;-87
2021/11/18 07:10:15;;;;;;;2.60;2.33;;;;;;;;;;5054639;28;20268;-87
2021/11/18 07:12:42;;;;;;;6.15;3.67;;;;;;;;;;5054289;28;20197;-87
2021/11/18 07:15:14;;;;;;;2.63;2.42;;;;;;;;;;5053927;28;20224;-87
2021/11/18 07:17:54;;;;;;;3.53;3.22;;;;;;;;;;5054281;28;20224;-88
2021/11/18 07:20:27;;;;;;;6.30;3.10;;;;;;;;;;5054064;28;20204;-87
2021/11/18 07:22:56;;;;;;;5.35;3.10;;;;;;;;;;5053786;28;20200;-87
2021/11/18 07:25:51;;;;;;;5.38;3.47;;;;;;;;;;5052892;28;20185;-88
2021/11/18 07:28:19;;;;;;;3.65;2.55;;;;;;;;;;5053268;28;20561;-88
2021/11/18 07:30:48;;;;;;;2.58;2.38;;;;;;;;;;5067587;28;20193;-88
2021/11/18 07:33:19;;;;;;;3.08;2.72;;;;;;;;;;5072775;28;20193;-86
2021/11/18 07:35:50;;;;;;;2.97;2.47;;;;;;;;;;5084118;28;20204;-87
2021/11/18 07:38:18;;;;;;;3.40;2.88;;;;;;;;;;5089836;28;20193;-88
2021/11/18 07:40:47;;;;;;;5.35;3.47;;;;;;;;;;5073542;28;20205;-86
2021/11/18 07:43:20;;;;;;;3.97;3.25;;;;;;;;;;5075965;28;20660;-87
2021/11/18 07:45:50;;;;;;;3.60;3.28;;;;;;;;;;5072081;28;20197;-89
2021/11/18 07:48:19;;;;;;;6.50;3.50;;;;;;;;;;5076164;28;20185;-89
2021/11/18 07:50:48;;;;;;;4.40;3.30;;;;;;;;;;5084448;28;20204;-88
2021/11/18 07:53:17;;;;;;;2.72;2.42;;;;;;;;;;5072869;28;20177;-89
2021/11/18 07:55:47;;;;;;;4.13;3.28;;;;;;;;;;5073052;28;20223;-88
2021/11/18 07:58:15;;;;;;;3.42;3.13;;;;;;;;;;5072531;28;20220;-88
2021/11/18 08:00:45;;;;;;;3.72;2.65;;;;;;;;;;5073143;28;20660;-88
2021/11/18 08:03:14;;;;;;;4.55;3.72;;;;;;;;;;5073441;28;20204;-88
2021/11/18 08:05:44;;;;;;;5.78;3.35;;;;;;;;;;5072973;28;20193;-88
2021/11/18 08:08:13;;;;;;;5.32;3.42;;;;;;;;;;5080151;28;20220;-89
2021/11/18 08:10:41;;;;;;;8.23;3.92;;;;;;;;;;5082214;28;20200;-89
2021/11/18 08:13:10;;;;;;;7.93;3.83;;;;;;;;;;5074905;28;20207;-87
2021/11/18 08:15:46;;;;;;;6.82;3.55;;;;;;;;;;5073871;28;20228;-90
2021/11/18 08:18:16;;;;;;;4.70;4.18;;;;;;;;;;5073155;28;20266;-89
2021/11/18 08:20:47;;;;;;;4.95;3.90;;;;;;;;;;5073017;28;20213;-88
2021/11/18 08:23:31;;;;;;;4.57;3.85;;;;;;;;;;5072940;28;20203;-88
2021/11/18 08:26:00;;;;;;;5.03;3.72;;;;;;;;;;5072789;28;20205;-88
2021/11/18 08:28:27;;;;;;;5.00;3.95;;;;;;;;;;5073096;28;20187;-87
2021/11/18 08:30:55;;;;;;;4.57;4.18;;;;;;;;;;5072924;28;20204;-89
2021/11/18 08:33:23;;;;;;;3.80;3.35;;;;;;;;;;5089673;28;20195;-90
2021/11/18 08:35:52;;;;;;;3.15;2.85;;;;;;;;;;5092161;28;20224;-89
2021/11/18 08:38:22;;;;;;;6.28;4.25;;;;;;;;;;5092738;28;20224;-88
2021/11/18 08:40:54;;;;;;;7.97;5.20;;;;;;;;;;5093267;28;20656;-89
2021/11/18 08:43:23;;;;;;;4.15;3.78;;;;;;;;;;5092738;28;20200;-88
2021/11/18 08:45:56;;;;;;;4.80;4.30;;;;;;;;;;5093118;28;20197;-89
2021/11/18 08:48:25;;;;;;;4.00;3.60;;;;;;;;;;5086074;28;20650;-89
2021/11/18 08:51:01;;;;;;;6.57;3.72;;;;;;;;;;5072606;28;20217;-88
2021/11/18 08:53:36;;;;;;;5.97;3.65;;;;;;;;;;5072706;28;20184;-89
2021/11/18 08:56:21;;;;;;;4.40;4.00;;;;;;;;;;5072712;28;20204;-89
2021/11/18 08:58:56;;;;;;;4.35;3.90;;;;;;;;;;5070992;28;20707;-89
2021/11/18 09:01:30;;;;;;;4.70;3.22;;;;;;;;;;5072628;28;20192;-88
2021/11/18 09:03:59;;;;;;;4.50;3.08;;;;;;;;;;5072973;28;20204;-89
2021/11/18 09:06:28;;;;;;;5.00;3.35;;;;;;;;;;5072473;28;20224;-89
2021/11/18 09:08:55;;;;;;;4.82;4.15;;;;;;;;;;5072053;28;20189;-89
2021/11/18 09:11:29;;;;;;;4.15;3.78;;;;;;;;;;5072325;28;20289;-88
2021/11/18 09:14:06;;;;;;;5.70;4.55;;;;;;;;;;5072453;28;20581;-88
2021/11/18 09:16:47;;;;;;;4.18;3.78;;;;;;;;;;5072112;28;20270;-88
2021/11/18 09:19:23;;;;;;;6.35;4.60;;;;;;;;;;5071675;28;20196;-88
2021/11/18 09:21:53;;;;;;;5.63;4.60;;;;;;;;;;5072291;28;20273;-87
2021/11/18 09:24:33;;;;;;;3.83;3.45;;;;;;;;;;5071991;28;20228;-88
2021/11/18 09:27:06;;;;;;;6.85;4.88;;;;;;;;;;5071675;28;20217;-87
2021/11/18 09:29:34;;;;;;;4.63;4.22;;;;;;;;;;5069364;28;20768;-89
2021/11/18 09:32:07;;;;;;;4.80;4.28;;;;;;;;;;5092213;28;20239;-88
2021/11/18 09:34:34;;;;;;;7.38;5.35;;;;;;;;;;5092230;28;20204;-89
2021/11/18 09:37:04;;;;;;;6.18;5.30;;;;;;;;;;5091747;28;20605;-88
2021/11/18 09:39:32;;;;;;;6.10;5.50;;;;;;;;;;5091546;28;20682;-88
2021/11/18 09:42:05;;;;;;;6.60;5.93;;;;;;;;;;5051947;28;20691;-89
2021/11/18 09:45:04;;;;;;;5.47;4.97;;;;;;;;;;5051414;28;20626;-88
2021/11/18 09:48:31;;;;;;;6.85;4.97;;;;;;;;;;5052684;28;20222;-89
2021/11/18 09:51:48;;;;;;;5.88;5.18;;;;;;;;;;5051658;28;20670;-88
2021/11/18 09:54:45;;;;;;;6.05;5.53;;;;;;;;;;5028783;28;20210;-88
2021/11/18 09:57:43;;;;;;;4.85;4.45;;;;;;;;;;5055386;28;20224;-87
2021/11/18 10:00:48;;;;;;;4.35;3.95;;;;;;;;;;5054910;28;20237;-89
2021/11/18 10:03:23;;;;;;;5.32;4.82;;;;;;;;;;5063076;28;20284;-88
2021/11/18 10:06:05;;;;;;;6.30;5.00;;;;;;;;;;5075302;28;20672;-89
2021/11/18 10:08:40;;;;;;;5.88;4.90;;;;;;;;;;5075128;28;20300;-89
2021/11/18 10:11:21;;;;;;;6.15;5.20;;;;;;;;;;5075157;28;20246;-89
2021/11/18 10:14:21;;;;;;;5.70;4.63;;;;;;;;;;5075318;28;20625;-88
2021/11/18 10:17:00;;;;;;;5.93;4.80;;;;;;;;;;5067578;28;20230;-88
2021/11/18 10:19:38;;;;;;;4.90;4.43;;;;;;;;;;5074929;28;20881;-89
2021/11/18 10:22:07;;;;;;;4.32;3.92;;;;;;;;;;5075068;28;20201;-88
2021/11/18 10:24:38;;;;;;;10.52;5.72;;;;;;;;;;5075054;28;20619;-88
2021/11/18 10:27:10;;;;;;;3.80;3.47;;;;;;;;;;5074124;28;20213;-88
2021/11/18 10:30:04;;;;;;;6.22;3.63;;;;;;;;;;5074097;28;20289;-88
2021/11/18 10:32:49;;;;;;;9.43;4.90;;;;;;;;;;5071234;28;20189;-88
2021/11/18 10:35:34;;;;;;;5.25;4.47;;;;;;;;;;5074090;28;20235;-88
2021/11/18 10:38:26;;;;;;;7.65;5.82;;;;;;;;;;5073561;28;20233;-89
2021/11/18 10:41:03;;;;;;;6.53;5.28;;;;;;;;;;5073849;28;20187;-88
2021/11/18 10:43:36;;;;;;;7.32;5.70;;;;;;;;;;5074168;28;20220;-88
2021/11/18 10:46:25;;;;;;;7.22;5.60;;;;;;;;;;5074273;28;20284;-88
2021/11/18 10:48:59;;;;;;;4.80;4.35;;;;;;;;;;5074355;28;20205;-89
2021/11/18 10:51:41;;;;;;;4.28;3.35;;;;;;;;;;5073998;28;20722;-87
2021/11/18 10:54:11;;;;;;;6.47;5.07;;;;;;;;;;5074284;28;20211;-89
2021/11/18 10:57:01;;;;;;;3.85;3.42;;;;;;;;;;5074126;28;20283;-89
2021/11/18 10:59:40;;;;;;;4.15;3.33;;;;;;;;;;5082570;28;20812;-89
2021/11/18 11:02:25;;;;;;;4.32;3.60;;;;;;;;;;5094412;28;20569;-89
2021/11/18 11:04:58;;;;;;;4.75;3.40;;;;;;;;;;5091088;28;20631;-88
2021/11/18 11:07:40;;;;;;;4.70;4.25;;;;;;;;;;5074092;28;20762;-88
2021/11/18 11:10:12;;;;;;;6.25;4.78;;;;;;;;;;5073982;28;20681;-88
2021/11/18 11:12:49;;;;;;;4.13;3.75;;;;;;;;;;5073797;28;20193;-88
2021/11/18 11:16:07;;;;;;;6.43;3.70;;;;;;;;;;5073578;28;20593;-88
2021/11/18 11:18:49;;;;;;;4.20;3.15;;;;;;;;;;5053653;28;20232;-87
2021/11/18 11:21:35;;;;;;;4.97;3.45;;;;;;;;;;5087903;28;20611;-87
2021/11/18 11:24:38;;;;;;;5.25;3.97;;;;;;;;;;5076805;28;20192;-89
2021/11/18 11:27:53;;;;;;;5.32;4.55;;;;;;;;;;5074392;28;20220;-87
2021/11/18 11:30:48;;;;;;;4.80;3.33;;;;;;;;;;5068154;28;20201;-89
2021/11/18 11:33:27;;;;;;;4.90;4.20;;;;;;;;;;5073005;28;20205;-88
2021/11/18 11:36:00;;;;;;;3.95;3.55;;;;;;;;;;5073402;28;20199;-89
2021/11/18 11:39:08;;;;;;;3.53;3.00;;;;;;;;;;5073202;28;20274;-89
2021/11/18 11:42:25;;;;;;;4.72;3.08;;;;;;;;;;5073186;28;20268;-88
2021/11/18 11:45:22;;;;;;;3.20;2.63;;;;;;;;;;5067020;28;20661;-89
2021/11/18 11:48:41;;;;;;;3.80;2.92;;;;;;;;;;5053230;28;20229;-89
2021/11/18 11:52:02;;;;;;;3.35;3.05;;;;;;;;;;5055322;28;20280;-88
2021/11/18 11:54:52;;;;;;;2.80;2.22;;;;;;;;;;5044626;28;20197;-89
2021/11/18 11:57:31;;;;;;;2.88;2.58;;;;;;;;;;5073099;28;20316;-88
2021/11/18 12:00:11;;;;;;;3.28;2.85;;;;;;;;;;5072747;28;20761;-88
2021/11/18 12:02:47;;;;;;;6.30;3.35;;;;;;;;;;5072701;28;20205;-89
2021/11/18 12:05:24;;;;;;;4.45;3.35;;;;;;;;;;5072978;28;20198;-89
2021/11/18 12:08:02;;;;;;;5.50;3.35;;;;;;;;;;5072957;28;20278;-88
2021/11/18 12:10:41;;;;;;;3.53;2.42;;;;;;;;;;5072520;28;20189;-88
2021/11/18 12:13:27;;;;;;;3.70;2.05;;;;;;;;;;5072982;28;20273;-89
2021/11/18 12:16:01;;;;;;;3.60;2.88;;;;;;;;;;5073451;28;20184;-88
2021/11/18 12:18:36;;;;;;;5.05;2.85;;;;;;;;;;5073451;28;20208;-89
2021/11/18 12:21:08;;;;;;;4.68;3.70;;;;;;;;;;5072988;28;20630;-90
2021/11/18 12:24:12;;;;;;;5.85;3.08;;;;;;;;;;5072926;28;20292;-89
2021/11/18 12:27:04;;;;;;;4.72;2.70;;;;;;;;;;5072437;28;20300;-89
2021/11/18 12:29:44;;;;;;;5.68;3.65;;;;;;;;;;5072402;28;20651;-90
2021/11/18 12:32:34;;;;;;;5.78;3.33;;;;;;;;;;5072561;28;20193;-89
2021/11/18 12:35:14;;;;;;;4.55;3.38;;;;;;;;;;5072453;28;20203;-90
2021/11/18 12:38:08;;;;;;;5.40;3.20;;;;;;;;;;5072635;28;20230;-89
2021/11/18 12:41:07;;;;;;;5.97;3.45;;;;;;;;;;5052778;28;20190;-88
2021/11/18 12:44:16;;;;;;;6.22;3.30;;;;;;;;;;5058579;28;20209;-87
2021/11/18 12:46:59;;;;;;;6.15;3.30;;;;;;;;;;5058303;28;20228;-88
2021/11/18 12:49:43;;;;;;;5.82;3.55;;;;;;;;;;5072475;28;20272;-89
2021/11/18 12:52:23;;;;;;;3.95;2.55;;;;;;;;;;5072270;28;20283;-89
2021/11/18 12:55:48;;;;;;;3.22;2.22;;;;;;;;;;5075796;28;20192;-88
2021/11/18 12:58:48;;;;;;;5.05;3.03;;;;;;;;;;5081665;28;20705;-88
2021/11/18 13:01:53;;;;;;;2.83;2.22;;;;;;;;;;5072160;28;20557;-89
2021/11/18 13:04:50;;;;;;;8.80;5.10;;;;;;;;;;5072039;28;20199;-88
2021/11/18 13:07:52;;;;;;;4.72;4.00;;;;;;;;;;5052528;28;20209;-87
2021/11/18 13:10:42;;;;;;;5.28;3.70;;;;;;;;;;5010417;28;20233;-87
2021/11/18 13:13:39;;;;;;;4.10;3.08;;;;;;;;;;4992312;28;20696;-89
2021/11/18 13:16:38;;;;;;;4.13;2.80;;;;;;;;;;5043393;28;20205;-88
2021/11/18 13:19:26;;;;;;;5.75;4.00;;;;;;;;;;5078189;28;20264;-90
2021/11/18 13:22:18;;;;;;;5.20;3.78;;;;;;;;;;5092016;28;20215;-89
2021/11/18 13:25:02;;;;;;;5.25;2.85;;;;;;;;;;5066754;28;20201;-88
2021/11/18 13:27:37;;;;;;;6.03;3.28;;;;;;;;;;5075906;28;20228;-86
2021/11/18 13:30:25;;;;;;;3.88;3.03;;;;;;;;;;5075948;28;20182;-87
2021/11/18 13:32:58;;;;;;;5.03;2.60;;;;;;;;;;5084468;28;20290;-90
2021/11/18 13:35:31;;;;;;;4.78;3.40;;;;;;;;;;5081858;28;20264;-88
2021/11/18 13:38:13;;;;;;;5.10;3.00;;;;;;;;;;5085677;28;20262;-89
2021/11/18 13:40:55;;;;;;;2.60;2.40;;;;;;;;;;5091304;28;20227;-88
2021/11/18 13:43:27;;;;;;;4.88;3.00;;;;;;;;;;5089629;28;20205;-89
2021/11/18 13:46:10;;;;;;;7.72;3.17;;;;;;;;;;5075627;28;20223;-89
2021/11/18 13:48:49;;;;;;;4.80;3.33;;;;;;;;;;5082834;28;20628;-89
2021/11/18 13:51:32;;;;;;;2.70;2.22;;;;;;;;;;5089723;28;20205;-89
2021/11/18 13:54:01;;;;;;;4.60;3.13;;;;;;;;;;5064190;28;20203;-90
2021/11/18 13:56:46;;;;;;;3.72;2.75;;;;;;;;;;5087424;28;20679;-90
2021/11/18 13:59:19;;;;;;;5.10;3.22;;;;;;;;;;5086549;28;20316;-89
2021/11/18 14:01:51;;;;;;;3.92;2.28;;;;;;;;;;5079273;28;20200;-90
2021/11/18 14:04:25;;;;;;;3.30;1.83;;;;;;;;;;5076122;28;21021;-90
2021/11/18 14:06:56;;;;;;;3.80;3.30;;;;;;;;;;5074821;28;20225;-90
2021/11/18 14:09:30;;;;;;;2.38;2.10;;;;;;;;;;5077733;28;20196;-90
2021/11/18 14:12:03;;;;;;;3.38;2.60;;;;;;;;;;5082041;28;20207;-90
2021/11/18 14:14:52;;;;;;;6.28;2.33;;;;;;;;;;5075536;28;20279;-90
2021/11/18 14:17:28;;;;;;;3.83;2.47;;;;;;;;;;5077144;28;20227;-90
2021/11/18 14:20:42;;;;;;;2.85;2.30;;;;;;;;;;5083693;28;20208;-90
2021/11/18 14:23:25;;;;;;;7.20;2.17;;;;;;;;;;5088120;28;20188;-89
2021/11/18 14:26:23;;;;;;;3.72;2.70;;;;;;;;;;5075231;28;20268;-89
2021/11/18 14:29:46;;;;;;;4.32;2.13;;;;;;;;;;5075762;28;20197;-90
2021/11/18 14:32:26;;;;;;;2.88;2.45;;;;;;;;;;5077395;28;20564;-91
2021/11/18 14:35:02;;;;;;;3.17;2.08;;;;;;;;;;5082834;28;20212;-90
2021/11/18 14:37:53;;;;;;;4.05;3.10;;;;;;;;;;5055029;28;20635;-90
2021/11/18 14:40:54;;;;;;;3.83;3.45;;;;;;;;;;5063609;28;20217;-90
2021/11/18 14:43:31;;;;;;;2.67;2.17;;;;;;;;;;5076219;28;20207;-90
2021/11/18 14:46:28;;;;;;;6.55;3.92;;;;;;;;;;5075211;28;20192;-90
2021/11/18 14:49:06;;;;;;;3.83;2.58;;;;;;;;;;5074345;28;20189;-90
2021/11/18 14:51:46;;;;;;;5.78;3.55;;;;;;;;;;5074073;28;20688;-90
2021/11/18 14:54:31;;;;;;;3.03;2.42;;;;;;;;;;5074578;28;20212;-91
2021/11/18 14:58:02;;;;;;;7.15;3.55;;;;;;;;;;5073450;28;20300;-90
2021/11/18 15:00:35;;;;;;;3.40;2.60;;;;;;;;;;5067994;28;20228;-91
2021/11/18 15:03:08;;;;;;;8.35;3.10;;;;;;;;;;5073193;28;20203;-88
2021/11/18 15:06:32;;;;;;;4.63;3.08;;;;;;;;;;5074073;28;20205;-91
2021/11/18 15:09:12;;;;;;;6.40;3.40;;;;;;;;;;5073930;28;20217;-91
2021/11/18 15:12:00;;;;;;;4.60;3.42;;;;;;;;;;5074209;28;20204;-90
2021/11/18 15:14:41;;;;;;;3.95;3.00;;;;;;;;;;5074317;28;20217;-91
2021/11/18 15:17:09;;;;;;;2.25;1.90;;;;;;;;;;5073773;28;20227;-92
2021/11/18 15:19:48;;;;;;;2.70;2.03;;;;;;;;;;5073686;28;20225;-90
2021/11/18 15:22:27;;;;;;;4.63;2.70;;;;;;;;;;5073759;28;20266;-90
2021/11/18 15:25:00;;;;;;;6.57;3.55;;;;;;;;;;5073325;28;20648;-89
2021/11/18 15:27:29;;;;;;;10.32;4.30;;;;;;;;;;5073146;28;20291;-88
2021/11/18 15:29:57;;;;;;;5.05;4.32;;;;;;;;;;5073914;28;20192;-89
2021/11/18 15:32:31;;;;;;;6.85;5.78;;;;;;;;;;5072948;28;20224;-88
2021/11/18 15:35:23;;;;;;;5.47;4.55;;;;;;;;;;5073446;28;20285;-88
2021/11/18 15:38:05;;;;;;;6.32;4.35;;;;;;;;;;5073369;28;20225;-89
2021/11/18 15:40:37;;;;;;;7.78;4.38;;;;;;;;;;5073539;28;20201;-88
2021/11/18 15:43:05;;;;;;;10.07;4.45;;;;;;;;;;5072995;28;20655;-86
2021/11/18 15:45:44;;;;;;;5.30;4.45;;;;;;;;;;5072464;28;20184;-89
2021/11/18 15:48:13;;;;;;;5.00;3.58;;;;;;;;;;5073068;28;20230;-89
2021/11/18 15:50:46;;;;;;;5.40;4.00;;;;;;;;;;5073252;28;20181;-87
2021/11/18 15:53:29;;;;;;;2.83;2.63;;;;;;;;;;5073012;28;20205;-89
2021/11/18 15:56:00;;;;;;;3.88;3.45;;;;;;;;;;5073120;28;20189;-89
2021/11/18 15:58:30;;;;;;;7.38;4.20;;;;;;;;;;5072912;28;20224;-89
2021/11/18 16:01:00;;;;;;;4.55;3.13;;;;;;;;;;5072276;28;20236;-88
2021/11/18 16:03:52;;;;;;;4.72;3.47;;;;;;;;;;5072584;28;20191;-88
2021/11/18 16:06:23;;;;;;;5.85;4.47;;;;;;;;;;5067459;28;20251;-88
2021/11/18 16:08:53;;;;;;;3.20;2.88;;;;;;;;;;5073214;28;20185;-89
2021/11/18 16:11:27;;;;;;;4.63;4.00;;;;;;;;;;5073021;28;20186;-90
2021/11/18 16:14:00;;;;;;;4.63;3.42;;;;;;;;;;5072630;28;20201;-90
2021/11/18 16:16:33;;;;;;;10.77;5.55;;;;;;;;;;5072850;28;20300;-90